sensor_id;sensor_type;location;lat;lon;timestamp;pressure;altitude;pressure_sealevel;temperature;humidity
16834;BME280;8533;48.426;10.868;2022-11-20T00:01:28;95596.37;;;4.73;100.00
16834;BME280;8533;48.426;10.868;2022-11-20T00:03:57;95594.29;;;4.73;100.00
16834;BME280;8533;48.426;10.868;2022-11-20T00:06:26;95594.29;;;4.73;100.00
16834;BME280;8533;48.426;10.868;2022-11-20T00:08:56;95589.61;;;4.72;100.00
16834;BME280;8533;48.426;10.868;2022-11-20T00:11:26;95597.09;;;4.71;100.00
16834;BME280;8533;48.426;10.868;2022-11-20T00:13:57;95601.23;;;4.70;100.00
16834;BME280;8533;48.426;10.868;2022-11-20T00:16:27;95587.63;;;4.65;100.00
16834;BME280;8533;48.426;10.868;2022-11-20T00:18:55;95591.97;;;4.62;100.00
16834;BME280;8533;48.426;10.868;2022-11-20T00:21:25;95598.38;;;4.59;100.00
16834;BME280;8533;48.426;10.868;2022-11-20T00:23:54;95602.55;;;4.60;100.00
16834;BME280;8533;48.426;10.868;2022-11-20T00:26:24;95601.76;;;4.60;100.00
16834;BME280;8533;48.426;10.868;2022-11-20T00:28:53;95602.19;;;4.57;100.00
16834;BME280;8533;48.426;10.868;2022-11-20T00:31:21;95611.25;;;4.57;100.00
16834;BME280;8533;48.426;10.868;2022-11-20T00:33:49;95611.25;;;4.57;100.00
16834;BME280;8533;48.426;10.868;2022-11-20T00:36:22;95620.02;;;4.56;100.00
16834;BME280;8533;48.426;10.868;2022-11-20T00:38:55;95616.14;;;4.56;100.00
16834;BME280;8533;48.426;10.868;2022-11-20T00:41:24;95619.30;;;4.58;100.00
16834;BME280;8533;48.426;10.868;2022-11-20T00:43:52;95620.19;;;4.52;100.00
16834;BME280;8533;48.426;10.868;2022-11-20T00:46:22;95626.45;;;4.53;100.00
16834;BME280;8533;48.426;10.868;2022-11-20T00:48:50;95620.19;;;4.52;100.00
16834;BME280;8533;48.426;10.868;2022-11-20T00:51:23;95623.36;;;4.54;100.00
16834;BME280;8533;48.426;10.868;2022-11-20T00:53:51;95624.00;;;4.49;100.00
16834;BME280;8533;48.426;10.868;2022-11-20T00:56:20;95625.00;;;4.48;100.00
16834;BME280;8533;48.426;10.868;2022-11-20T00:58:48;95624.95;;;4.46;100.00
16834;BME280;8533;48.426;10.868;2022-11-20T01:01:23;95626.76;;;4.45;100.00
16834;BME280;8533;48.426;10.868;2022-11-20T01:03:49;95631.44;;;4.46;100.00
16834;BME280;8533;48.426;10.868;2022-11-20T01:06:33;95631.19;;;4.47;100.00
16834;BME280;8533;48.426;10.868;2022-11-20T01:08:57;95631.44;;;4.46;100.00
16834;BME280;8533;48.426;10.868;2022-11-20T01:11:27;95639.41;;;4.44;100.00
16834;BME280;8533;48.426;10.868;2022-11-20T01:13:56;95639.20;;;4.46;100.00
16834;BME280;8533;48.426;10.868;2022-11-20T01:16:27;95639.91;;;4.44;100.00
16834;BME280;8533;48.426;10.868;2022-11-20T01:18:58;95637.54;;;4.42;100.00
16834;BME280;8533;48.426;10.868;2022-11-20T01:21:29;95636.83;;;4.44;100.00
16834;BME280;8533;48.426;10.868;2022-11-20T01:23:57;95633.44;;;4.44;100.00
16834;BME280;8533;48.426;10.868;2022-11-20T01:26:27;95632.07;;;4.41;100.00
16834;BME280;8533;48.426;10.868;2022-11-20T01:28:56;95645.52;;;4.41;100.00
16834;BME280;8533;48.426;10.868;2022-11-20T01:31:29;95640.80;;;4.38;100.00
16834;BME280;8533;48.426;10.868;2022-11-20T01:34:04;95635.92;;;4.30;100.00
16834;BME280;8533;48.426;10.868;2022-11-20T01:36:29;95642.59;;;4.28;100.00
16834;BME280;8533;48.426;10.868;2022-11-20T01:39:01;95649.41;;;4.22;100.00
16834;BME280;8533;48.426;10.868;2022-11-20T01:41:30;95643.39;;;4.19;100.00
16834;BME280;8533;48.426;10.868;2022-11-20T01:44:19;95647.48;;;4.18;100.00
16834;BME280;8533;48.426;10.868;2022-11-20T01:46:57;95652.03;;;4.13;100.00
16834;BME280;8533;48.426;10.868;2022-11-20T01:49:37;95650.08;;;4.09;100.00
16834;BME280;8533;48.426;10.868;2022-11-20T01:52:04;95652.88;;;4.07;100.00
16834;BME280;8533;48.426;10.868;2022-11-20T01:54:38;95650.50;;;4.06;100.00
16834;BME280;8533;48.426;10.868;2022-11-20T01:57:05;95654.45;;;4.08;100.00
16834;BME280;8533;48.426;10.868;2022-11-20T01:59:35;95649.78;;;4.08;100.00
16834;BME280;8533;48.426;10.868;2022-11-20T02:02:04;95649.73;;;4.05;100.00
16834;BME280;8533;48.426;10.868;2022-11-20T02:04:31;95649.44;;;4.04;100.00
16834;BME280;8533;48.426;10.868;2022-11-20T02:07:03;95647.36;;;4.04;100.00
16834;BME280;8533;48.426;10.868;2022-11-20T02:09:31;95643.69;;;4.02;100.00
16834;BME280;8533;48.426;10.868;2022-11-20T02:11:59;95639.30;;;4.03;100.00
16834;BME280;8533;48.426;10.868;2022-11-20T02:14:28;95638.80;;;4.03;100.00
16834;BME280;8533;48.426;10.868;2022-11-20T02:16:55;95636.00;;;4.05;100.00
16834;BME280;8533;48.426;10.868;2022-11-20T02:19:30;95638.52;;;4.02;100.00
16834;BME280;8533;48.426;10.868;2022-11-20T02:22:09;95634.63;;;4.02;100.00
16834;BME280;8533;48.426;10.868;2022-11-20T02:24:36;95635.84;;;4.00;100.00
16834;BME280;8533;48.426;10.868;2022-11-20T02:27:13;95639.52;;;4.01;100.00
16834;BME280;8533;48.426;10.868;2022-11-20T02:29:46;95639.22;;;4.00;100.00
16834;BME280;8533;48.426;10.868;2022-11-20T02:32:23;95638.38;;;3.97;100.00
16834;BME280;8533;48.426;10.868;2022-11-20T02:34:50;95643.09;;;3.91;100.00
16834;BME280;8533;48.426;10.868;2022-11-20T02:37:18;95639.42;;;3.90;100.00
16834;BME280;8533;48.426;10.868;2022-11-20T02:39:48;95644.84;;;3.88;100.00
16834;BME280;8533;48.426;10.868;2022-11-20T02:42:16;95645.26;;;3.85;100.00
16834;BME280;8533;48.426;10.868;2022-11-20T02:44:44;95638.95;;;3.81;100.00
16834;BME280;8533;48.426;10.868;2022-11-20T02:47:11;95643.24;;;3.78;100.00
16834;BME280;8533;48.426;10.868;2022-11-20T02:49:38;95639.36;;;3.78;100.00
16834;BME280;8533;48.426;10.868;2022-11-20T02:52:06;95638.58;;;3.77;100.00
16834;BME280;8533;48.426;10.868;2022-11-20T02:54:33;95642.66;;;3.76;100.00
16834;BME280;8533;48.426;10.868;2022-11-20T02:57:01;95640.37;;;3.77;100.00
16834;BME280;8533;48.426;10.868;2022-11-20T02:59:28;95639.95;;;3.80;100.00
16834;BME280;8533;48.426;10.868;2022-11-20T03:01:56;95640.80;;;3.83;100.00
16834;BME280;8533;48.426;10.868;2022-11-20T03:04:23;95639.71;;;3.81;100.00
16834;BME280;8533;48.426;10.868;2022-11-20T03:06:50;95641.00;;;3.81;100.00
16834;BME280;8533;48.426;10.868;2022-11-20T03:09:18;95641.87;;;3.84;100.00
16834;BME280;8533;48.426;10.868;2022-11-20T03:11:45;95639.17;;;3.89;100.00
16834;BME280;8533;48.426;10.868;2022-11-20T03:14:13;95638.50;;;3.93;100.00
16834;BME280;8533;48.426;10.868;2022-11-20T03:16:40;95634.34;;;3.92;100.00
16834;BME280;8533;48.426;10.868;2022-11-20T03:19:07;95636.71;;;3.94;100.00
16834;BME280;8533;48.426;10.868;2022-11-20T03:21:35;95636.21;;;3.94;100.00
16834;BME280;8533;48.426;10.868;2022-11-20T03:24:03;95639.38;;;3.96;100.00
16834;BME280;8533;48.426;10.868;2022-11-20T03:26:30;95642.97;;;3.95;100.00
16834;BME280;8533;48.426;10.868;2022-11-20T03:29:00;95638.14;;;3.99;100.00
16834;BME280;8533;48.426;10.868;2022-11-20T03:31:30;95639.14;;;3.98;100.00
16834;BME280;8533;48.426;10.868;2022-11-20T03:33:59;95640.44;;;3.98;100.00
16834;BME280;8533;48.426;10.868;2022-11-20T03:36:27;95640.22;;;3.99;100.00
16834;BME280;8533;48.426;10.868;2022-11-20T03:38:56;95640.73;;;3.99;100.00
16834;BME280;8533;48.426;10.868;2022-11-20T03:41:26;95637.43;;;4.01;100.00
16834;BME280;8533;48.426;10.868;2022-11-20T03:43:57;95640.59;;;4.03;100.00
16834;BME280;8533;48.426;10.868;2022-11-20T03:46:26;95635.42;;;4.03;100.00
16834;BME280;8533;48.426;10.868;2022-11-20T03:48:54;95634.92;;;4.03;100.00
16834;BME280;8533;48.426;10.868;2022-11-20T03:51:26;95632.25;;;4.01;100.00
16834;BME280;8533;48.426;10.868;2022-11-20T03:53:57;95631.75;;;4.01;100.00
16834;BME280;8533;48.426;10.868;2022-11-20T03:56:27;95629.53;;;4.05;100.00
16834;BME280;8533;48.426;10.868;2022-11-20T03:58:55;95636.50;;;4.04;100.00
16834;BME280;8533;48.426;10.868;2022-11-20T04:01:26;95634.84;;;4.01;100.00
16834;BME280;8533;48.426;10.868;2022-11-20T04:03:55;95634.76;;;3.98;100.00
16834;BME280;8533;48.426;10.868;2022-11-20T04:06:26;95632.17;;;3.98;100.00
16834;BME280;8533;48.426;10.868;2022-11-20T04:08:58;95635.92;;;4.02;100.00
16834;BME280;8533;48.426;10.868;2022-11-20T04:11:27;95637.64;;;4.08;100.00
16834;BME280;8533;48.426;10.868;2022-11-20T04:14:00;95639.22;;;4.09;100.00
16834;BME280;8533;48.426;10.868;2022-11-20T04:16:30;95643.69;;;4.11;100.00
16834;BME280;8533;48.426;10.868;2022-11-20T04:19:00;95647.12;;;4.14;100.00
16834;BME280;8533;48.426;10.868;2022-11-20T04:21:28;95643.23;;;4.14;100.00
16834;BME280;8533;48.426;10.868;2022-11-20T04:23:56;95648.15;;;4.13;100.00
16834;BME280;8533;48.426;10.868;2022-11-20T04:26:26;95640.09;;;4.12;100.00
16834;BME280;8533;48.426;10.868;2022-11-20T04:28:54;95635.97;;;4.14;100.00
16834;BME280;8533;48.426;10.868;2022-11-20T04:31:24;95637.22;;;4.11;100.00
16834;BME280;8533;48.426;10.868;2022-11-20T04:33:53;95635.97;;;4.14;100.00
16834;BME280;8533;48.426;10.868;2022-11-20T04:36:23;95632.63;;;4.13;100.00
16834;BME280;8533;48.426;10.868;2022-11-20T04:38:52;95633.39;;;4.14;100.00
16834;BME280;8533;48.426;10.868;2022-11-20T04:41:21;95636.22;;;4.12;100.00
16834;BME280;8533;48.426;10.868;2022-11-20T04:43:51;95632.55;;;4.11;100.00
16834;BME280;8533;48.426;10.868;2022-11-20T04:46:20;95632.17;;;4.07;100.00
16834;BME280;8533;48.426;10.868;2022-11-20T04:48:48;95635.55;;;4.08;100.00
16834;BME280;8533;48.426;10.868;2022-11-20T04:51:15;95638.64;;;4.07;100.00
16834;BME280;8533;48.426;10.868;2022-11-20T04:53:43;95637.00;;;4.04;100.00
16834;BME280;8533;48.426;10.868;2022-11-20T04:56:11;95636.63;;;4.00;100.00
16834;BME280;8533;48.426;10.868;2022-11-20T04:58:39;95637.14;;;4.00;100.00
16834;BME280;8533;48.426;10.868;2022-11-20T05:01:12;95632.67;;;3.98;100.00
16834;BME280;8533;48.426;10.868;2022-11-20T05:03:41;95629.38;;;4.00;100.00
16834;BME280;8533;48.426;10.868;2022-11-20T05:06:11;95634.70;;;3.96;100.00
16834;BME280;8533;48.426;10.868;2022-11-20T05:08:39;95626.78;;;3.91;100.00
16834;BME280;8533;48.426;10.868;2022-11-20T05:11:11;95617.67;;;3.79;100.00
16834;BME280;8533;48.426;10.868;2022-11-20T05:13:40;95626.73;;;3.88;100.00
16834;BME280;8533;48.426;10.868;2022-11-20T05:16:13;95623.98;;;3.83;100.00
16834;BME280;8533;48.426;10.868;2022-11-20T05:18:41;95627.81;;;3.80;100.00
16834;BME280;8533;48.426;10.868;2022-11-20T05:21:10;95616.38;;;3.79;100.00
16834;BME280;8533;48.426;10.868;2022-11-20T05:23:38;95627.14;;;3.76;100.00
16834;BME280;8533;48.426;10.868;2022-11-20T05:26:07;95628.88;;;3.73;100.00
16834;BME280;8533;48.426;10.868;2022-11-20T05:28:35;95633.77;;;3.72;100.00
16834;BME280;8533;48.426;10.868;2022-11-20T05:31:13;95628.88;;;3.73;100.00
16834;BME280;8533;48.426;10.868;2022-11-20T05:33:41;95638.64;;;3.71;100.00
16834;BME280;8533;48.426;10.868;2022-11-20T05:36:10;95635.34;;;3.73;100.00
16834;BME280;8533;48.426;10.868;2022-11-20T05:38:38;95638.14;;;3.71;100.00
16834;BME280;8533;48.426;10.868;2022-11-20T05:41:11;95641.44;;;3.69;100.00
16834;BME280;8533;48.426;10.868;2022-11-20T05:43:41;95639.56;;;3.67;100.00
16834;BME280;8533;48.426;10.868;2022-11-20T05:46:10;95640.35;;;3.68;100.00
16834;BME280;8533;48.426;10.868;2022-11-20T05:48:39;95645.97;;;3.65;100.00
16834;BME280;8533;48.426;10.868;2022-11-20T05:51:10;95643.51;;;3.61;100.00
16834;BME280;8533;48.426;10.868;2022-11-20T05:53:37;95639.63;;;3.61;100.00
16834;BME280;8533;48.426;10.868;2022-11-20T05:56:07;95642.13;;;3.58;100.00
16834;BME280;8533;48.426;10.868;2022-11-20T05:58:36;95643.13;;;3.57;100.00
16834;BME280;8533;48.426;10.868;2022-11-20T06:01:15;95644.08;;;3.54;100.00
16834;BME280;8533;48.426;10.868;2022-11-20T06:03:39;95646.08;;;3.52;100.00
16834;BME280;8533;48.426;10.868;2022-11-20T06:06:09;95645.78;;;3.51;100.00
16834;BME280;8533;48.426;10.868;2022-11-20T06:08:36;95650.89;;;3.48;100.00
16834;BME280;8533;48.426;10.868;2022-11-20T06:11:06;95638.59;;;3.43;100.00
16834;BME280;8533;48.426;10.868;2022-11-20T06:13:35;95645.84;;;3.44;100.00
16834;BME280;8533;48.426;10.868;2022-11-20T06:16:02;95657.27;;;3.45;100.00
16834;BME280;8533;48.426;10.868;2022-11-20T06:18:30;95657.77;;;3.45;100.00
16834;BME280;8533;48.426;10.868;2022-11-20T06:21:04;95662.23;;;3.47;100.00
16834;BME280;8533;48.426;10.868;2022-11-20T06:23:33;95660.73;;;3.49;100.00
16834;BME280;8533;48.426;10.868;2022-11-20T06:26:03;95654.83;;;3.51;100.00
16834;BME280;8533;48.426;10.868;2022-11-20T06:28:33;95659.59;;;3.54;100.00
16834;BME280;8533;48.426;10.868;2022-11-20T06:31:01;95657.70;;;3.52;100.00
16834;BME280;8533;48.426;10.868;2022-11-20T06:33:29;95656.13;;;3.51;100.00
16834;BME280;8533;48.426;10.868;2022-11-20T06:35:59;95661.00;;;3.50;100.00
16834;BME280;8533;48.426;10.868;2022-11-20T06:38:27;95663.32;;;3.49;100.00
16834;BME280;8533;48.426;10.868;2022-11-20T06:40:55;95666.23;;;3.43;100.00
16834;BME280;8533;48.426;10.868;2022-11-20T06:43:23;95671.70;;;3.44;100.00
16834;BME280;8533;48.426;10.868;2022-11-20T06:45:53;95663.44;;;3.44;100.00
16834;BME280;8533;48.426;10.868;2022-11-20T06:48:22;95664.32;;;3.48;100.00
16834;BME280;8533;48.426;10.868;2022-11-20T06:50:52;95671.58;;;3.48;100.00
16834;BME280;8533;48.426;10.868;2022-11-20T06:53:23;95668.25;;;3.50;100.00
16834;BME280;8533;48.426;10.868;2022-11-20T06:55:55;95673.30;;;3.54;100.00
16834;BME280;8533;48.426;10.868;2022-11-20T06:58:30;95674.24;;;3.60;100.00
16834;BME280;8533;48.426;10.868;2022-11-20T07:01:07;95675.17;;;3.65;100.00
16834;BME280;8533;48.426;10.868;2022-11-20T07:03:34;95671.27;;;3.72;100.00
16834;BME280;8533;48.426;10.868;2022-11-20T07:06:02;95670.75;;;3.81;100.00
16834;BME280;8533;48.426;10.868;2022-11-20T07:08:35;95671.64;;;3.94;100.00
16834;BME280;8533;48.426;10.868;2022-11-20T07:11:02;95671.94;;;4.04;100.00
16834;BME280;8533;48.426;10.868;2022-11-20T07:13:30;95672.66;;;4.11;100.00
16834;BME280;8533;48.426;10.868;2022-11-20T07:16:03;95678.84;;;4.19;100.00
16834;BME280;8533;48.426;10.868;2022-11-20T07:18:30;95675.25;;;4.29;100.00
16834;BME280;8533;48.426;10.868;2022-11-20T07:21:02;95675.66;;;4.35;100.00
16834;BME280;8533;48.426;10.868;2022-11-20T07:23:29;95675.58;;;4.42;100.00
16834;BME280;8533;48.426;10.868;2022-11-20T07:25:57;95675.78;;;4.49;100.00
16834;BME280;8533;48.426;10.868;2022-11-20T07:28:24;95676.70;;;4.55;100.00
16834;BME280;8533;48.426;10.868;2022-11-20T07:30:53;95685.20;;;4.62;100.00
16834;BME280;8533;48.426;10.868;2022-11-20T07:33:21;95677.56;;;4.67;100.00
16834;BME280;8533;48.426;10.868;2022-11-20T07:35:48;95676.39;;;4.72;100.00
16834;BME280;8533;48.426;10.868;2022-11-20T07:38:16;95686.16;;;4.79;100.00
16834;BME280;8533;48.426;10.868;2022-11-20T07:40:43;95689.91;;;4.83;100.00
16834;BME280;8533;48.426;10.868;2022-11-20T07:43:11;95678.66;;;4.89;100.00
16834;BME280;8533;48.426;10.868;2022-11-20T07:45:38;95686.42;;;4.89;100.00
16834;BME280;8533;48.426;10.868;2022-11-20T07:48:07;95677.06;;;4.88;100.00
16834;BME280;8533;48.426;10.868;2022-11-20T07:50:34;95674.67;;;4.96;100.00
16834;BME280;8533;48.426;10.868;2022-11-20T07:53:04;95674.74;;;4.98;100.00
16834;BME280;8533;48.426;10.868;2022-11-20T07:55:32;95673.80;;;5.02;100.00
16834;BME280;8533;48.426;10.868;2022-11-20T07:57:59;95670.25;;;5.06;99.84
16834;BME280;8533;48.426;10.868;2022-11-20T08:00:27;95669.31;;;5.09;100.00
16834;BME280;8533;48.426;10.868;2022-11-20T08:02:56;95675.91;;;5.14;99.03
16834;BME280;8533;48.426;10.868;2022-11-20T08:05:27;95680.30;;;5.14;97.55
16834;BME280;8533;48.426;10.868;2022-11-20T08:07:54;95674.69;;;5.17;99.62
16834;BME280;8533;48.426;10.868;2022-11-20T08:10:21;95681.56;;;5.23;100.00
16834;BME280;8533;48.426;10.868;2022-11-20T08:12:53;95685.56;;;5.28;99.29
16834;BME280;8533;48.426;10.868;2022-11-20T08:15:39;95679.01;;;5.34;100.00
16834;BME280;8533;48.426;10.868;2022-11-20T08:18:09;95683.95;;;5.36;99.67
16834;BME280;8533;48.426;10.868;2022-11-20T08:20:38;95681.36;;;5.36;99.52
16834;BME280;8533;48.426;10.868;2022-11-20T08:23:07;95680.92;;;5.39;98.98
16834;BME280;8533;48.426;10.868;2022-11-20T08:25:35;95669.75;;;5.38;99.17
16834;BME280;8533;48.426;10.868;2022-11-20T08:28:06;95679.52;;;5.34;99.09
16834;BME280;8533;48.426;10.868;2022-11-20T08:30:34;95682.72;;;5.38;99.19
16834;BME280;8533;48.426;10.868;2022-11-20T08:33:07;95683.27;;;5.29;97.88
16834;BME280;8533;48.426;10.868;2022-11-20T08:35:37;95689.59;;;5.33;97.50
16834;BME280;8533;48.426;10.868;2022-11-20T08:38:06;95685.42;;;5.32;98.72
16834;BME280;8533;48.426;10.868;2022-11-20T08:40:33;95680.52;;;5.33;99.09
16834;BME280;8533;48.426;10.868;2022-11-20T08:43:01;95684.84;;;5.30;98.91
16834;BME280;8533;48.426;10.868;2022-11-20T08:45:29;95686.43;;;5.31;98.73
16834;BME280;8533;48.426;10.868;2022-11-20T08:48:04;95682.25;;;5.30;99.21
16834;BME280;8533;48.426;10.868;2022-11-20T08:50:31;95689.02;;;5.31;99.15
16834;BME280;8533;48.426;10.868;2022-11-20T08:53:04;95685.31;;;5.27;99.12
16834;BME280;8533;48.426;10.868;2022-11-20T08:55:33;95686.36;;;5.28;100.00
16834;BME280;8533;48.426;10.868;2022-11-20T08:58:05;95692.19;;;5.33;100.00
16834;BME280;8533;48.426;10.868;2022-11-20T09:00:34;95682.43;;;5.37;100.00
16834;BME280;8533;48.426;10.868;2022-11-20T09:03:01;95683.80;;;5.40;100.00
16834;BME280;8533;48.426;10.868;2022-11-20T09:05:29;95693.20;;;5.44;99.54
16834;BME280;8533;48.426;10.868;2022-11-20T09:07:57;95686.17;;;5.42;99.32
16834;BME280;8533;48.426;10.868;2022-11-20T09:10:25;95691.97;;;5.46;99.14
16834;BME280;8533;48.426;10.868;2022-11-20T09:12:53;95690.53;;;5.50;99.55
16834;BME280;8533;48.426;10.868;2022-11-20T09:15:24;95691.65;;;5.54;99.54
16834;BME280;8533;48.426;10.868;2022-11-20T09:17:56;95691.21;;;5.57;98.81
16834;BME280;8533;48.426;10.868;2022-11-20T09:20:25;95691.03;;;5.61;98.13
16834;BME280;8533;48.426;10.868;2022-11-20T09:22:52;95692.04;;;5.60;99.25
16834;BME280;8533;48.426;10.868;2022-11-20T09:25:21;95689.95;;;5.60;99.39
16834;BME280;8533;48.426;10.868;2022-11-20T09:27:54;95689.87;;;5.66;100.00
16834;BME280;8533;48.426;10.868;2022-11-20T09:30:17;95686.82;;;5.81;99.93
16834;BME280;8533;48.426;10.868;2022-11-20T09:32:44;95683.70;;;5.91;98.70
16834;BME280;8533;48.426;10.868;2022-11-20T09:35:12;95684.69;;;6.01;96.66
16834;BME280;8533;48.426;10.868;2022-11-20T09:37:40;95686.48;;;6.12;97.43
16834;BME280;8533;48.426;10.868;2022-11-20T09:43:03;95679.65;;;6.21;95.33
16834;BME280;8533;48.426;10.868;2022-11-20T09:45:37;95685.09;;;6.33;94.98
16834;BME280;8533;48.426;10.868;2022-11-20T09:49:03;95676.79;;;6.34;93.74
16834;BME280;8533;48.426;10.868;2022-11-20T09:54:15;95669.72;;;6.43;94.31
16834;BME280;8533;48.426;10.868;2022-11-20T09:56:21;95676.49;;;6.44;93.25
16834;BME280;8533;48.426;10.868;2022-11-20T09:58:51;95671.80;;;6.44;91.92
16834;BME280;8533;48.426;10.868;2022-11-20T10:01:21;95667.45;;;6.47;92.62
16834;BME280;8533;48.426;10.868;2022-11-20T10:06:41;95668.20;;;6.59;91.23
16834;BME280;8533;48.426;10.868;2022-11-20T10:11:46;95665.66;;;6.62;90.47
16834;BME280;8533;48.426;10.868;2022-11-20T10:14:28;95666.53;;;6.67;90.86
16834;BME280;8533;48.426;10.868;2022-11-20T10:17:58;95669.75;;;6.72;89.80
16834;BME280;8533;48.426;10.868;2022-11-20T10:19:55;95669.27;;;6.61;90.24
16834;BME280;8533;48.426;10.868;2022-11-20T10:27:43;95668.78;;;6.49;91.09
16834;BME280;8533;48.426;10.868;2022-11-20T10:30:18;95672.17;;;6.50;91.73
16834;BME280;8533;48.426;10.868;2022-11-20T10:32:46;95685.79;;;6.55;92.61
16834;BME280;8533;48.426;10.868;2022-11-20T10:35:21;95666.59;;;6.56;90.43
16834;BME280;8533;48.426;10.868;2022-11-20T10:37:56;95670.09;;;6.49;90.40
16834;BME280;8533;48.426;10.868;2022-11-20T10:41:03;95677.48;;;6.55;90.82
16834;BME280;8533;48.426;10.868;2022-11-20T10:43:08;95675.03;;;6.63;91.24
16834;BME280;8533;48.426;10.868;2022-11-20T10:48:14;95679.72;;;6.63;91.61
16834;BME280;8533;48.426;10.868;2022-11-20T10:54:06;95668.53;;;6.48;94.02
16834;BME280;8533;48.426;10.868;2022-11-20T10:56:05;95668.20;;;6.59;94.50
16834;BME280;8533;48.426;10.868;2022-11-20T11:01:20;95665.85;;;6.72;93.98
16834;BME280;8533;48.426;10.868;2022-11-20T11:03:52;95666.72;;;6.77;92.55
16834;BME280;8533;48.426;10.868;2022-11-20T11:06:41;95668.45;;;6.72;89.06
16834;BME280;8533;48.426;10.868;2022-11-20T11:09:17;95670.34;;;6.76;90.17
16834;BME280;8533;48.426;10.868;2022-11-20T11:11:44;95661.53;;;6.63;92.43
16834;BME280;8533;48.426;10.868;2022-11-20T11:14:13;95657.74;;;6.42;96.96
16834;BME280;8533;48.426;10.868;2022-11-20T11:16:53;95652.25;;;6.27;98.13
16834;BME280;8533;48.426;10.868;2022-11-20T11:19:20;95651.94;;;6.24;99.48
16834;BME280;8533;48.426;10.868;2022-11-20T11:21:58;95641.40;;;6.16;99.58
16834;BME280;8533;48.426;10.868;2022-11-20T11:24:24;95646.05;;;6.17;99.30
16834;BME280;8533;48.426;10.868;2022-11-20T11:27:03;95641.58;;;6.26;99.95
16834;BME280;8533;48.426;10.868;2022-11-20T11:29:33;95643.53;;;6.33;98.32
16834;BME280;8533;48.426;10.868;2022-11-20T11:32:12;95647.04;;;6.39;98.35
16834;BME280;8533;48.426;10.868;2022-11-20T11:34:36;95648.56;;;6.37;97.31
16834;BME280;8533;48.426;10.868;2022-11-20T11:37:05;95641.14;;;6.43;96.99
16834;BME280;8533;48.426;10.868;2022-11-20T11:39:34;95636.51;;;6.45;94.94
16834;BME280;8533;48.426;10.868;2022-11-20T11:42:01;95635.63;;;6.54;93.43
16834;BME280;8533;48.426;10.868;2022-11-20T11:44:31;95629.93;;;6.55;93.30
16834;BME280;8533;48.426;10.868;2022-11-20T11:52:50;95633.04;;;6.40;94.38
16834;BME280;8533;48.426;10.868;2022-11-20T12:00:56;95635.45;;;6.18;96.21
16834;BME280;8533;48.426;10.868;2022-11-20T12:03:48;95632.84;;;6.18;96.82
16834;BME280;8533;48.426;10.868;2022-11-20T12:05:59;95630.48;;;6.17;97.80
16834;BME280;8533;48.426;10.868;2022-11-20T12:08:32;95630.03;;;6.20;96.65
16834;BME280;8533;48.426;10.868;2022-11-20T12:16:21;95625.41;;;6.22;97.61
16834;BME280;8533;48.426;10.868;2022-11-20T12:18:51;95623.41;;;6.26;96.47
16834;BME280;8533;48.426;10.868;2022-11-20T12:21:38;95625.77;;;6.28;96.54
16834;BME280;8533;48.426;10.868;2022-11-20T12:26:58;95621.23;;;6.35;96.63
16834;BME280;8533;48.426;10.868;2022-11-20T12:37:17;95622.02;;;6.35;96.99
16834;BME280;8533;48.426;10.868;2022-11-20T12:39:42;95623.75;;;6.30;96.21
16834;BME280;8533;48.426;10.868;2022-11-20T12:42:29;95615.24;;;6.20;96.11
16834;BME280;8533;48.426;10.868;2022-11-20T12:45:36;95618.34;;;6.20;97.15
16834;BME280;8533;48.426;10.868;2022-11-20T12:51:18;95612.94;;;6.35;96.79
16834;BME280;8533;48.426;10.868;2022-11-20T12:54:00;95622.95;;;6.43;97.69
16834;BME280;8533;48.426;10.868;2022-11-20T12:56:43;95614.88;;;6.42;95.93
16834;BME280;8533;48.426;10.868;2022-11-20T13:01:45;95606.95;;;6.49;95.53
16834;BME280;8533;48.426;10.868;2022-11-20T13:07:13;95607.99;;;6.48;96.48
16834;BME280;8533;48.426;10.868;2022-11-20T13:09:46;95615.45;;;6.44;95.29
16834;BME280;8533;48.426;10.868;2022-11-20T13:12:19;95613.98;;;6.48;96.60
16834;BME280;8533;48.426;10.868;2022-11-20T13:17:42;95607.38;;;6.43;96.41
16834;BME280;8533;48.426;10.868;2022-11-20T13:20:13;95602.89;;;6.39;95.27
16834;BME280;8533;48.426;10.868;2022-11-20T13:22:52;95606.95;;;6.35;95.89
16834;BME280;8533;48.426;10.868;2022-11-20T13:25:25;95600.88;;;6.29;96.12
16834;BME280;8533;48.426;10.868;2022-11-20T13:27:51;95595.86;;;6.25;96.43
16834;BME280;8533;48.426;10.868;2022-11-20T13:30:21;95593.45;;;6.21;96.44
16834;BME280;8533;48.426;10.868;2022-11-20T13:32:57;95594.92;;;6.17;96.43
16834;BME280;8533;48.426;10.868;2022-11-20T13:35:32;95593.53;;;6.12;96.14
16834;BME280;8533;48.426;10.868;2022-11-20T13:40:35;95601.41;;;6.17;97.64
16834;BME280;8533;48.426;10.868;2022-11-20T13:43:10;95593.91;;;6.18;97.52
16834;BME280;8533;48.426;10.868;2022-11-20T13:45:36;95587.70;;;6.19;97.85
16834;BME280;8533;48.426;10.868;2022-11-20T13:48:16;95585.95;;;6.22;97.98
16834;BME280;8533;48.426;10.868;2022-11-20T13:50:40;95591.88;;;6.20;97.70
16834;BME280;8533;48.426;10.868;2022-11-20T13:55:53;95592.72;;;6.23;98.42
16834;BME280;8533;48.426;10.868;2022-11-20T14:00:57;95583.30;;;6.20;99.05
16834;BME280;8533;48.426;10.868;2022-11-20T14:03:25;95587.75;;;6.22;98.61
16834;BME280;8533;48.426;10.868;2022-11-20T14:06:00;95591.14;;;6.22;98.12
16834;BME280;8533;48.426;10.868;2022-11-20T14:11:18;95585.61;;;6.19;97.51
16834;BME280;8533;48.426;10.868;2022-11-20T14:14:02;95586.39;;;6.19;98.60
16834;BME280;8533;48.426;10.868;2022-11-20T14:16:30;95583.06;;;6.21;98.08
16834;BME280;8533;48.426;10.868;2022-11-20T14:19:17;95594.41;;;6.18;97.18
16834;BME280;8533;48.426;10.868;2022-11-20T14:21:34;95593.09;;;6.15;98.26
16834;BME280;8533;48.426;10.868;2022-11-20T14:24:04;95598.45;;;6.25;97.90
16834;BME280;8533;48.426;10.868;2022-11-20T14:26:32;95594.89;;;6.29;96.90
16834;BME280;8533;48.426;10.868;2022-11-20T14:29:00;95598.79;;;6.29;97.07
16834;BME280;8533;48.426;10.868;2022-11-20T14:31:30;95599.75;;;6.25;98.06
16834;BME280;8533;48.426;10.868;2022-11-20T14:33:58;95594.38;;;6.15;97.48
16834;BME280;8533;48.426;10.868;2022-11-20T14:36:26;95586.45;;;6.07;97.62